Moville, IA (51039)

2:01 AM CDT on August 01, 2014 (GMT -0500)
SSW Union (KIAKINGS2) Elev 1368 ft | 42.66 °N, 96.06 °W | Change Station

Current weather conditions updated 48 seconds ago

Clear
Clear
57.8 °F
Feels Like 57.8 °F
N
4.0
Wind Variable Wind from South
Gusts 4.0 mph

Today is forecast to be Much Warmer than yesterday.

Today
High -- | Low -- °F
--% Chance of Precip.
Yesterday
High -- | Low -- °F
Precip. -- in
6:16 AM 8:44 PM
Waxing Crescent, 24% visible
Pressure 30.06 in
Visibility 10.0 miles
Clouds Clear
Dew Point 52 °F
Humidity 81%
Rainfall 0.00 in
Snow Depth Not available.
UV 0 out of 12
Pollen 6.00 out of 12
Air Quality Not available.
Flu Activity Not available.
METAR KSUX 010652Z 00000KT 10SM CLR 16/14 A3007 RMK AO2 SLP177 T01560144

More Conditions Fewer Conditions

Pressure 30.06 in
Visibility 10.0 miles
Clouds Clear
Dew Point 52 °F
Humidity 81%
Rainfall 0.00 in
Snow Depth Not available.
UV 0 out of 12
Pollen 6.00 out of 12
Air Quality Not available.
Flu Activity Not available.
METAR KSUX 010652Z 00000KT 10SM CLR 16/14 A3007 RMK AO2 SLP177 T01560144

More Conditions Fewer Conditions

10-Day Weather Forecast

Almanac

Astronomy

Aug. 01, 2014 Rise Set
Actual Time 6:16 AM CDT 8:44 PM CDT
Civil Twilight 5:44 AM CDT 9:15 PM CDT
Nautical Twilight 5:04 AM CDT 9:55 PM CDT
Astronomical Twilight 4:20 AM CDT 10:39 PM CDT
Moon 11:49 AM CDT 11:20 PM CDT
Length of Visible Light 15h 31m
Length of Day
14h 27m
Tomorrow will be 2m 11s shorter.
Waxing Crescent, 24% of the Moon is Illuminated
Today
Waxing Crescent
Aug 3
First Quarter
Aug 10
Full
Aug 17
Last Quarter
Aug 25
New

Today's Extremes

State Highs State Lows

Community

WunderPhotos

Upload Photos

1,739,522 photos uploaded!

Nearby

Snow Depth

Station Depth Elevation
No new snow has been reported.

Earthquake Activity

City Distance Mag. Time & Date
No recent earthquake activity has been reported nearby.
Minimum magnitude displayed is 2.5.

Coastal Water Temperatures

Place Temperature
No Stations Reporting

Nearby Weather Stations

Station Location Temp. Dew Point Humidity Wind Precip. Elev Updated Type
SSW Union, Kingsley, IA 57.8 °F 52 °F 81% South  at  4.0 mph 0.00 in / hr 1368 ft 2:00 AM CDT Normal
MesoWest SHAGBARK HILLS , Correctionville, IA 62 °F 58 °F 87% SE  at  1 mph 0.00 in / hr 1399 ft 12:00 AM CDT MADIS
MesoWest SALIX , Salix, IA 60 °F - - North  at  - 0.00 in / hr 1077 ft 11:00 PM CDT MADIS
HADS WEST FORK DITCH AT HORNICK IA, Rodney, IA 59 °F - - North  at  - 0.00 in / hr 1045 ft 1:00 AM CDT MADIS
Down Town, LeMars, IA 60.4 °F 55 °F 83% North  at  0.0 mph 0.00 in / hr 1220 ft 1:58 AM CDT Normal
McCook Lake SD, McCook Lake, SD 61.3 °F 61 °F 98% ENE  at  0.0 mph 0.00 in / hr 1114 ft 2:01 AM CDT Rapid Fire
NW Le Mars, Le Mars, IA 58.3 °F 122 °F - NE  at  0.0 mph 0.00 in / hr 1280 ft 2:00 AM CDT Normal

Show More Stations Show Fewer Stations